sensor_id;sensor_type;location;lat;lon;timestamp;pressure;altitude;pressure_sealevel;temperature;humidity
36798;BME280;22748;8.426;99.512;2023-04-22T00:00:14;100377.50;;;31.43;62.53
36798;BME280;22748;8.426;99.512;2023-04-22T00:02:52;100376.03;;;31.40;62.52
36798;BME280;22748;8.426;99.512;2023-04-22T00:05:29;100383.56;;;31.38;62.49
36798;BME280;22748;8.426;99.512;2023-04-22T00:08:02;100380.28;;;31.36;62.80
36798;BME280;22748;8.426;99.512;2023-04-22T00:10:33;100379.19;;;31.37;62.65
36798;BME280;22748;8.426;99.512;2023-04-22T00:13:10;100385.19;;;31.39;62.73
36798;BME280;22748;8.426;99.512;2023-04-22T00:15:46;100375.59;;;31.43;62.79
36798;BME280;22748;8.426;99.512;2023-04-22T00:18:28;100386.41;;;31.43;63.04
36798;BME280;22748;8.426;99.512;2023-04-22T00:21:04;100388.03;;;31.44;62.91
36798;BME280;22748;8.426;99.512;2023-04-22T00:23:54;100393.44;;;31.44;63.03
36798;BME280;22748;8.426;99.512;2023-04-22T00:26:25;100392.16;;;31.47;63.18
36798;BME280;22748;8.426;99.512;2023-04-22T00:28:54;100396.13;;;31.44;62.39
36798;BME280;22748;8.426;99.512;2023-04-22T00:31:25;100400.28;;;31.47;62.95
36798;BME280;22748;8.426;99.512;2023-04-22T00:34:08;100401.69;;;31.49;62.89
36798;BME280;22748;8.426;99.512;2023-04-22T00:36:44;100414.91;;;31.51;63.21
36798;BME280;22748;8.426;99.512;2023-04-22T00:39:17;100423.00;;;31.51;63.38
36798;BME280;22748;8.426;99.512;2023-04-22T00:41:52;100423.00;;;31.51;63.11
36798;BME280;22748;8.426;99.512;2023-04-22T00:44:24;100427.38;;;31.52;63.24
36798;BME280;22748;8.426;99.512;2023-04-22T00:46:59;100438.75;;;31.54;63.59
36798;BME280;22748;8.426;99.512;2023-04-22T00:49:31;100436.88;;;31.54;63.16
36798;BME280;22748;8.426;99.512;2023-04-22T00:52:07;100443.09;;;31.55;63.48
36798;BME280;22748;8.426;99.512;2023-04-22T00:54:40;100442.28;;;31.54;63.67
36798;BME280;22748;8.426;99.512;2023-04-22T00:57:11;100441.84;;;31.58;63.56
36798;BME280;22748;8.426;99.512;2023-04-22T00:59:42;100446.16;;;31.59;63.54
36798;BME280;22748;8.426;99.512;2023-04-22T01:02:14;100449.69;;;31.59;63.41
36798;BME280;22748;8.426;99.512;2023-04-22T01:04:51;100444.28;;;31.59;63.79
36798;BME280;22748;8.426;99.512;2023-04-22T01:07:28;100448.84;;;31.59;63.82
36798;BME280;22748;8.426;99.512;2023-04-22T01:10:34;100461.06;;;31.61;63.89
36798;BME280;22748;8.426;99.512;2023-04-22T01:13:10;100470.19;;;31.48;64.93
36798;BME280;22748;8.426;99.512;2023-04-22T01:15:41;100477.00;;;31.51;65.03
36798;BME280;22748;8.426;99.512;2023-04-22T01:18:13;100467.97;;;31.57;64.53
36798;BME280;22748;8.426;99.512;2023-04-22T01:20:45;100466.63;;;31.66;64.66
36798;BME280;22748;8.426;99.512;2023-04-22T01:23:23;100471.06;;;31.72;64.23
36798;BME280;22748;8.426;99.512;2023-04-22T01:26:01;100471.44;;;31.76;64.42
36798;BME280;22748;8.426;99.512;2023-04-22T01:28:33;100475.91;;;31.82;64.62
36798;BME280;22748;8.426;99.512;2023-04-22T01:31:02;100477.91;;;31.87;64.19
36798;BME280;22748;8.426;99.512;2023-04-22T01:33:38;100485.53;;;31.90;64.04
36798;BME280;22748;8.426;99.512;2023-04-22T01:36:16;100480.72;;;31.92;64.10
36798;BME280;22748;8.426;99.512;2023-04-22T01:39:06;100488.59;;;31.93;64.07
36798;BME280;22748;8.426;99.512;2023-04-22T01:41:43;100495.06;;;31.92;63.81
36798;BME280;22748;8.426;99.512;2023-04-22T01:44:20;100496.91;;;31.92;63.78
36798;BME280;22748;8.426;99.512;2023-04-22T01:46:56;100498.59;;;31.93;63.81
36798;BME280;22748;8.426;99.512;2023-04-22T01:49:41;100501.03;;;31.94;64.20
36798;BME280;22748;8.426;99.512;2023-04-22T01:52:19;100496.63;;;32.00;64.20
36798;BME280;22748;8.426;99.512;2023-04-22T01:55:02;100496.97;;;32.04;64.08
36798;BME280;22748;8.426;99.512;2023-04-22T01:57:32;100499.78;;;32.09;63.63
36798;BME280;22748;8.426;99.512;2023-04-22T02:00:04;100495.78;;;32.11;64.04
36798;BME280;22748;8.426;99.512;2023-04-22T02:02:34;100502.38;;;32.15;63.94
36798;BME280;22748;8.426;99.512;2023-04-22T02:05:06;100500.50;;;32.16;63.63
36798;BME280;22748;8.426;99.512;2023-04-22T02:07:42;100504.63;;;32.18;63.74
36798;BME280;22748;8.426;99.512;2023-04-22T02:10:23;100493.22;;;32.16;64.10
36798;BME280;22748;8.426;99.512;2023-04-22T02:13:07;100491.13;;;32.18;63.20
36798;BME280;22748;8.426;99.512;2023-04-22T02:15:39;100493.34;;;32.22;63.91
36798;BME280;22748;8.426;99.512;2023-04-22T02:18:09;100491.44;;;32.22;64.18
36798;BME280;22748;8.426;99.512;2023-04-22T02:20:39;100488.88;;;32.27;64.31
36798;BME280;22748;8.426;99.512;2023-04-22T02:23:15;100479.00;;;32.21;64.01
36798;BME280;22748;8.426;99.512;2023-04-22T02:25:56;100477.72;;;32.24;63.56
36798;BME280;22748;8.426;99.512;2023-04-22T02:28:27;100476.41;;;32.26;63.20
36798;BME280;22748;8.426;99.512;2023-04-22T02:30:57;100475.72;;;32.31;63.38
36798;BME280;22748;8.426;99.512;2023-04-22T02:33:28;100475.25;;;32.34;63.34
36798;BME280;22748;8.426;99.512;2023-04-22T02:35:58;100479.22;;;32.31;63.23
36798;BME280;22748;8.426;99.512;2023-04-22T02:38:29;100477.47;;;32.37;63.07
36798;BME280;22748;8.426;99.512;2023-04-22T02:41:21;100473.59;;;32.33;63.21
36798;BME280;22748;8.426;99.512;2023-04-22T02:43:52;100481.25;;;32.36;63.09
36798;BME280;22748;8.426;99.512;2023-04-22T02:46:29;100483.25;;;32.41;63.18
36798;BME280;22748;8.426;99.512;2023-04-22T02:49:05;100480.41;;;32.47;63.06
36798;BME280;22748;8.426;99.512;2023-04-22T02:51:37;100478.53;;;32.48;62.91
36798;BME280;22748;8.426;99.512;2023-04-22T02:54:13;100477.59;;;32.54;62.55
36798;BME280;22748;8.426;99.512;2023-04-22T02:56:51;100483.69;;;32.61;62.25
36798;BME280;22748;8.426;99.512;2023-04-22T02:59:35;100483.94;;;32.59;61.97
36798;BME280;22748;8.426;99.512;2023-04-22T03:02:12;100490.50;;;32.64;61.92
36798;BME280;22748;8.426;99.512;2023-04-22T03:04:48;100485.22;;;32.69;61.40
36798;BME280;22748;8.426;99.512;2023-04-22T03:07:22;100480.13;;;32.72;61.58
36798;BME280;22748;8.426;99.512;2023-04-22T03:09:53;100477.22;;;32.74;61.50
36798;BME280;22748;8.426;99.512;2023-04-22T03:12:32;100471.81;;;32.74;61.23
36798;BME280;22748;8.426;99.512;2023-04-22T03:15:09;100475.09;;;32.76;61.13
36798;BME280;22748;8.426;99.512;2023-04-22T03:17:51;100474.59;;;32.79;61.06
36798;BME280;22748;8.426;99.512;2023-04-22T03:20:28;100474.94;;;32.83;60.99
36798;BME280;22748;8.426;99.512;2023-04-22T03:23:05;100469.41;;;32.89;60.44
36798;BME280;22748;8.426;99.512;2023-04-22T03:25:36;100479.72;;;32.92;60.60
36798;BME280;22748;8.426;99.512;2023-04-22T03:28:13;100483.00;;;32.94;60.84
36798;BME280;22748;8.426;99.512;2023-04-22T03:30:49;100483.59;;;32.96;60.55
36798;BME280;22748;8.426;99.512;2023-04-22T03:33:33;100475.47;;;32.96;60.34
36798;BME280;22748;8.426;99.512;2023-04-22T03:36:09;100480.44;;;32.99;60.23
36798;BME280;22748;8.426;99.512;2023-04-22T03:38:39;100484.19;;;32.98;60.69
36798;BME280;22748;8.426;99.512;2023-04-22T03:41:10;100488.06;;;33.03;60.17
36798;BME280;22748;8.426;99.512;2023-04-22T03:43:58;100489.72;;;33.04;60.34
36798;BME280;22748;8.426;99.512;2023-04-22T03:46:29;100486.53;;;33.07;60.07
36798;BME280;22748;8.426;99.512;2023-04-22T03:48:59;100489.25;;;33.07;60.11
36798;BME280;22748;8.426;99.512;2023-04-22T03:51:30;100487.72;;;33.11;59.82
36798;BME280;22748;8.426;99.512;2023-04-22T03:54:06;100488.53;;;33.11;59.78
36798;BME280;22748;8.426;99.512;2023-04-22T03:56:42;100487.22;;;33.14;59.94
36798;BME280;22748;8.426;99.512;2023-04-22T03:59:25;100488.88;;;33.15;60.02
36798;BME280;22748;8.426;99.512;2023-04-22T04:01:55;100483.47;;;33.15;59.88
36798;BME280;22748;8.426;99.512;2023-04-22T04:04:26;100484.34;;;33.20;59.88
36798;BME280;22748;8.426;99.512;2023-04-22T04:07:02;100483.63;;;33.25;60.27
36798;BME280;22748;8.426;99.512;2023-04-22T04:09:33;100481.50;;;33.27;59.90
36798;BME280;22748;8.426;99.512;2023-04-22T04:12:09;100480.44;;;33.28;58.89
36798;BME280;22748;8.426;99.512;2023-04-22T04:14:54;100471.03;;;33.31;58.58
36798;BME280;22748;8.426;99.512;2023-04-22T04:17:41;100474.16;;;33.39;57.88
36798;BME280;22748;8.426;99.512;2023-04-22T04:20:12;100469.97;;;33.49;57.62
36798;BME280;22748;8.426;99.512;2023-04-22T04:22:54;100461.47;;;33.57;57.76
36798;BME280;22748;8.426;99.512;2023-04-22T04:25:31;100458.28;;;33.60;57.67
36798;BME280;22748;8.426;99.512;2023-04-22T04:28:22;100444.75;;;33.60;57.93
36798;BME280;22748;8.426;99.512;2023-04-22T04:31:03;100440.41;;;33.59;57.39
36798;BME280;22748;8.426;99.512;2023-04-22T04:33:34;100433.34;;;33.58;57.70
36798;BME280;22748;8.426;99.512;2023-04-22T04:36:11;100427.44;;;33.61;57.87
36798;BME280;22748;8.426;99.512;2023-04-22T04:38:55;100418.56;;;33.66;57.47
36798;BME280;22748;8.426;99.512;2023-04-22T04:41:30;100412.94;;;33.67;57.52
36798;BME280;22748;8.426;99.512;2023-04-22T04:44:16;100411.84;;;33.68;57.11
36798;BME280;22748;8.426;99.512;2023-04-22T04:46:55;100410.22;;;33.67;57.16
36798;BME280;22748;8.426;99.512;2023-04-22T04:49:32;100404.47;;;33.64;56.80
36798;BME280;22748;8.426;99.512;2023-04-22T04:52:08;100400.94;;;33.63;56.23
36798;BME280;22748;8.426;99.512;2023-04-22T04:54:45;100387.41;;;33.63;56.20
36798;BME280;22748;8.426;99.512;2023-04-22T04:57:20;100378.28;;;33.69;55.90
36798;BME280;22748;8.426;99.512;2023-04-22T05:00:01;100371.78;;;33.70;54.72
36798;BME280;22748;8.426;99.512;2023-04-22T05:02:46;100367.19;;;33.71;55.20
36798;BME280;22748;8.426;99.512;2023-04-22T05:05:22;100356.19;;;33.77;54.38
36798;BME280;22748;8.426;99.512;2023-04-22T05:07:59;100346.25;;;33.83;54.61
36798;BME280;22748;8.426;99.512;2023-04-22T05:10:45;100342.50;;;33.84;54.57
36798;BME280;22748;8.426;99.512;2023-04-22T05:13:16;100325.47;;;33.89;54.77
36798;BME280;22748;8.426;99.512;2023-04-22T05:16:01;100316.31;;;33.95;54.35
36798;BME280;22748;8.426;99.512;2023-04-22T05:18:43;100328.38;;;34.04;54.06
36798;BME280;22748;8.426;99.512;2023-04-22T05:21:33;100337.38;;;34.10;52.97
36798;BME280;22748;8.426;99.512;2023-04-22T05:24:06;100341.03;;;34.15;53.48
36798;BME280;22748;8.426;99.512;2023-04-22T05:26:42;100336.75;;;34.19;53.68
36798;BME280;22748;8.426;99.512;2023-04-22T05:29:13;100326.91;;;34.13;54.38
36798;BME280;22748;8.426;99.512;2023-04-22T05:31:50;100314.41;;;34.12;53.77
36798;BME280;22748;8.426;99.512;2023-04-22T05:34:22;100299.16;;;34.06;54.39
36798;BME280;22748;8.426;99.512;2023-04-22T05:36:53;100283.94;;;34.05;54.43
36798;BME280;22748;8.426;99.512;2023-04-22T05:39:27;100283.09;;;33.99;54.61
36798;BME280;22748;8.426;99.512;2023-04-22T05:42:03;100270.28;;;33.95;55.47
36798;BME280;22748;8.426;99.512;2023-04-22T05:44:46;100257.28;;;33.97;55.82
36798;BME280;22748;8.426;99.512;2023-04-22T05:47:34;100238.97;;;34.04;55.99
36798;BME280;22748;8.426;99.512;2023-04-22T05:50:19;100231.25;;;34.13;55.66
36798;BME280;22748;8.426;99.512;2023-04-22T05:53:02;100235.09;;;34.17;56.16
36798;BME280;22748;8.426;99.512;2023-04-22T05:55:33;100228.34;;;34.19;56.51
36798;BME280;22748;8.426;99.512;2023-04-22T05:58:03;100230.06;;;34.31;54.92
36798;BME280;22748;8.426;99.512;2023-04-22T06:00:36;100231.25;;;34.40;55.05
36798;BME280;22748;8.426;99.512;2023-04-22T06:03:07;100223.41;;;34.44;54.47
36798;BME280;22748;8.426;99.512;2023-04-22T06:05:44;100212.25;;;34.40;54.73
36798;BME280;22748;8.426;99.512;2023-04-22T06:08:15;100216.72;;;34.24;54.06
36798;BME280;22748;8.426;99.512;2023-04-22T06:10:45;100219.06;;;34.15;53.30
36798;BME280;22748;8.426;99.512;2023-04-22T06:13:20;100240.22;;;33.96;52.77
36798;BME280;22748;8.426;99.512;2023-04-22T06:15:53;100270.78;;;33.92;52.24
36798;BME280;22748;8.426;99.512;2023-04-22T06:18:25;100276.00;;;33.76;50.69
36798;BME280;22748;8.426;99.512;2023-04-22T06:21:10;100272.53;;;33.59;50.90
36798;BME280;22748;8.426;99.512;2023-04-22T06:23:47;100245.16;;;33.38;50.52
36798;BME280;22748;8.426;99.512;2023-04-22T06:26:17;100212.28;;;33.30;51.72
36798;BME280;22748;8.426;99.512;2023-04-22T06:28:48;100201.00;;;33.38;51.16
36798;BME280;22748;8.426;99.512;2023-04-22T06:31:24;100199.44;;;33.42;51.79
36798;BME280;22748;8.426;99.512;2023-04-22T06:33:55;100201.16;;;33.48;51.61
36798;BME280;22748;8.426;99.512;2023-04-22T06:36:28;100225.19;;;33.45;50.38
36798;BME280;22748;8.426;99.512;2023-04-22T06:39:04;100228.34;;;33.36;50.19
36798;BME280;22748;8.426;99.512;2023-04-22T06:41:38;100231.94;;;33.25;50.00
36798;BME280;22748;8.426;99.512;2023-04-22T06:44:11;100248.44;;;33.24;49.68
36798;BME280;22748;8.426;99.512;2023-04-22T06:46:48;100254.66;;;33.24;49.05
36798;BME280;22748;8.426;99.512;2023-04-22T06:49:18;100248.44;;;33.24;48.72
36798;BME280;22748;8.426;99.512;2023-04-22T06:52:11;100266.59;;;33.23;48.69
36798;BME280;22748;8.426;99.512;2023-04-22T06:54:57;100262.22;;;33.22;48.69
36798;BME280;22748;8.426;99.512;2023-04-22T06:57:28;100270.91;;;33.24;48.83
36798;BME280;22748;8.426;99.512;2023-04-22T07:00:05;100271.41;;;33.21;48.29
36798;BME280;22748;8.426;99.512;2023-04-22T07:02:37;100263.03;;;33.06;48.44
36798;BME280;22748;8.426;99.512;2023-04-22T07:05:08;100258.84;;;32.98;49.34
36798;BME280;22748;8.426;99.512;2023-04-22T07:07:47;100264.25;;;32.98;49.96
36798;BME280;22748;8.426;99.512;2023-04-22T07:10:17;100285.97;;;33.03;50.77
36798;BME280;22748;8.426;99.512;2023-04-22T07:12:55;100300.56;;;33.02;50.73
36798;BME280;22748;8.426;99.512;2023-04-22T07:15:27;100303.38;;;33.07;50.67
36798;BME280;22748;8.426;99.512;2023-04-22T07:17:59;100293.84;;;33.05;51.48
36798;BME280;22748;8.426;99.512;2023-04-22T07:20:36;100282.22;;;33.04;51.31
36798;BME280;22748;8.426;99.512;2023-04-22T07:23:14;100289.56;;;32.92;50.80
36798;BME280;22748;8.426;99.512;2023-04-22T07:25:51;100283.66;;;32.78;51.16
36798;BME280;22748;8.426;99.512;2023-04-22T07:28:35;100260.78;;;32.86;50.91
36798;BME280;22748;8.426;99.512;2023-04-22T07:31:07;100240.00;;;32.86;50.95
36798;BME280;22748;8.426;99.512;2023-04-22T07:33:38;100240.00;;;32.86;50.86
36798;BME280;22748;8.426;99.512;2023-04-22T07:36:15;100249.16;;;32.85;50.45
36798;BME280;22748;8.426;99.512;2023-04-22T07:38:51;100277.75;;;32.81;50.93
36798;BME280;22748;8.426;99.512;2023-04-22T07:41:22;100301.03;;;32.82;50.90
36798;BME280;22748;8.426;99.512;2023-04-22T07:44:01;100307.41;;;32.76;50.83
36798;BME280;22748;8.426;99.512;2023-04-22T07:46:40;100299.38;;;32.81;50.54
36798;BME280;22748;8.426;99.512;2023-04-22T07:49:18;100277.00;;;32.86;50.19
36798;BME280;22748;8.426;99.512;2023-04-22T07:51:58;100268.09;;;32.85;50.77
36798;BME280;22748;8.426;99.512;2023-04-22T07:54:47;100263.25;;;32.87;50.81
36798;BME280;22748;8.426;99.512;2023-04-22T07:57:17;100260.31;;;32.89;50.80
36798;BME280;22748;8.426;99.512;2023-04-22T07:59:54;100261.13;;;32.89;51.28
36798;BME280;22748;8.426;99.512;2023-04-22T08:02:27;100260.56;;;32.87;51.04
36798;BME280;22748;8.426;99.512;2023-04-22T08:05:03;100259.50;;;32.88;50.86
36798;BME280;22748;8.426;99.512;2023-04-22T08:07:34;100274.31;;;32.86;50.67
36798;BME280;22748;8.426;99.512;2023-04-22T08:10:08;100268.59;;;32.82;50.87
36798;BME280;22748;8.426;99.512;2023-04-22T08:12:39;100278.25;;;32.78;51.34
36798;BME280;22748;8.426;99.512;2023-04-22T08:15:15;100281.69;;;32.73;51.96
36798;BME280;22748;8.426;99.512;2023-04-22T08:17:46;100301.81;;;32.66;52.07
36798;BME280;22748;8.426;99.512;2023-04-22T08:20:17;100310.00;;;32.54;52.23
36798;BME280;22748;8.426;99.512;2023-04-22T08:22:53;100325.75;;;32.45;52.47
36798;BME280;22748;8.426;99.512;2023-04-22T08:25:36;100320.72;;;32.37;52.56
36798;BME280;22748;8.426;99.512;2023-04-22T08:28:13;100311.00;;;32.24;52.92
36798;BME280;22748;8.426;99.512;2023-04-22T08:30:44;100305.38;;;32.14;52.93
36798;BME280;22748;8.426;99.512;2023-04-22T08:33:19;100308.22;;;32.07;53.23
36798;BME280;22748;8.426;99.512;2023-04-22T08:35:57;100308.72;;;32.04;53.27
36798;BME280;22748;8.426;99.512;2023-04-22T08:38:28;100295.91;;;32.00;53.67
36798;BME280;22748;8.426;99.512;2023-04-22T08:41:00;100291.56;;;31.98;53.50
36798;BME280;22748;8.426;99.512;2023-04-22T08:43:32;100305.44;;;32.02;53.53
36798;BME280;22748;8.426;99.512;2023-04-22T08:46:20;100299.78;;;32.04;53.40
36798;BME280;22748;8.426;99.512;2023-04-22T08:49:20;100280.63;;;32.05;53.32
36798;BME280;22748;8.426;99.512;2023-04-22T08:52:02;100259.50;;;32.02;53.47
36798;BME280;22748;8.426;99.512;2023-04-22T08:54:36;100235.34;;;31.84;54.02
36798;BME280;22748;8.426;99.512;2023-04-22T08:57:12;100214.97;;;31.64;54.35
36798;BME280;22748;8.426;99.512;2023-04-22T08:59:44;100209.66;;;31.69;54.78
36798;BME280;22748;8.426;99.512;2023-04-22T09:02:19;100208.13;;;31.73;54.62
36798;BME280;22748;8.426;99.512;2023-04-22T09:04:50;100226.66;;;31.82;54.19
36798;BME280;22748;8.426;99.512;2023-04-22T09:07:22;100222.16;;;31.87;54.11
36798;BME280;22748;8.426;99.512;2023-04-22T09:09:53;100218.66;;;31.87;54.46
36798;BME280;22748;8.426;99.512;2023-04-22T09:12:25;100208.34;;;31.84;54.14
36798;BME280;22748;8.426;99.512;2023-04-22T09:15:03;100215.38;;;31.85;54.32
36798;BME280;22748;8.426;99.512;2023-04-22T09:17:36;100217.84;;;31.86;54.27
36798;BME280;22748;8.426;99.512;2023-04-22T09:20:14;100212.19;;;31.88;54.68
36798;BME280;22748;8.426;99.512;2023-04-22T09:22:50;100216.53;;;31.89;54.57
36798;BME280;22748;8.426;99.512;2023-04-22T09:25:27;100219.81;;;31.91;54.99
36798;BME280;22748;8.426;99.512;2023-04-22T09:27:58;100211.72;;;31.91;54.23
36798;BME280;22748;8.426;99.512;2023-04-22T09:30:36;100188.56;;;31.95;54.81
36798;BME280;22748;8.426;99.512;2023-04-22T09:33:25;100184.81;;;31.96;54.79
36798;BME280;22748;8.426;99.512;2023-04-22T09:35:56;100175.81;;;31.90;54.82
36798;BME280;22748;8.426;99.512;2023-04-22T09:38:30;100178.72;;;31.89;54.62
36798;BME280;22748;8.426;99.512;2023-04-22T09:41:09;100173.56;;;31.87;54.77
36798;BME280;22748;8.426;99.512;2023-04-22T09:43:48;100165.47;;;31.87;54.83
36798;BME280;22748;8.426;99.512;2023-04-22T09:46:19;100158.75;;;31.90;54.64
36798;BME280;22748;8.426;99.512;2023-04-22T09:48:53;100159.84;;;31.89;54.92
36798;BME280;22748;8.426;99.512;2023-04-22T09:51:30;100160.88;;;31.88;54.94
36798;BME280;22748;8.426;99.512;2023-04-22T09:54:02;100174.38;;;31.88;54.98
36798;BME280;22748;8.426;99.512;2023-04-22T09:56:51;100181.09;;;31.85;55.01
36798;BME280;22748;8.426;99.512;2023-04-22T09:59:29;100187.22;;;31.81;55.03
36798;BME280;22748;8.426;99.512;2023-04-22T10:02:07;100193.09;;;31.77;55.26
36798;BME280;22748;8.426;99.512;2023-04-22T10:04:39;100180.63;;;31.76;55.27
36798;BME280;22748;8.426;99.512;2023-04-22T10:07:15;100163.13;;;31.79;55.12
36798;BME280;22748;8.426;99.512;2023-04-22T10:09:46;100174.78;;;31.80;55.79
36798;BME280;22748;8.426;99.512;2023-04-22T10:12:23;100177.22;;;31.81;55.24
36798;BME280;22748;8.426;99.512;2023-04-22T10:14:56;100172.09;;;31.80;54.98
36798;BME280;22748;8.426;99.512;2023-04-22T10:17:37;100157.56;;;31.69;55.18
36798;BME280;22748;8.426;99.512;2023-04-22T10:20:16;100149.59;;;31.62;55.43
36798;BME280;22748;8.426;99.512;2023-04-22T10:22:54;100147.16;;;31.49;55.86
36798;BME280;22748;8.426;99.512;2023-04-22T10:25:26;100140.59;;;31.45;56.38
36798;BME280;22748;8.426;99.512;2023-04-22T10:27:57;100158.53;;;31.51;55.84
36798;BME280;22748;8.426;99.512;2023-04-22T10:30:34;100171.66;;;31.59;56.22
36798;BME280;22748;8.426;99.512;2023-04-22T10:33:39;100180.34;;;31.61;56.15
36798;BME280;22748;8.426;99.512;2023-04-22T10:36:15;100175.28;;;31.65;55.77
36798;BME280;22748;8.426;99.512;2023-04-22T10:41:38;100183.47;;;31.70;56.09
36798;BME280;22748;8.426;99.512;2023-04-22T10:44:08;100184.28;;;31.70;55.57
36798;BME280;22748;8.426;99.512;2023-04-22T10:46:58;100189.09;;;31.68;55.90
36798;BME280;22748;8.426;99.512;2023-04-22T10:49:31;100184.78;;;31.67;56.33
36798;BME280;22748;8.426;99.512;2023-04-22T10:52:03;100188.44;;;31.61;56.23
36798;BME280;22748;8.426;99.512;2023-04-22T10:54:56;100184.09;;;31.60;56.51
36798;BME280;22748;8.426;99.512;2023-04-22T10:57:35;100195.47;;;31.62;56.43
36798;BME280;22748;8.426;99.512;2023-04-22T11:00:28;100197.00;;;31.58;56.52
36798;BME280;22748;8.426;99.512;2023-04-22T11:03:17;100194.78;;;31.55;56.49
36798;BME280;22748;8.426;99.512;2023-04-22T11:06:19;100189.59;;;31.42;56.70
36798;BME280;22748;8.426;99.512;2023-04-22T11:09:08;100186.69;;;31.20;57.38
36798;BME280;22748;8.426;99.512;2023-04-22T11:11:40;100188.69;;;31.01;58.20
36798;BME280;22748;8.426;99.512;2023-04-22T11:14:11;100183.97;;;30.84;58.61
36798;BME280;22748;8.426;99.512;2023-04-22T11:16:46;100186.53;;;30.79;58.91
36798;BME280;22748;8.426;99.512;2023-04-22T11:19:30;100184.41;;;30.81;59.23
36798;BME280;22748;8.426;99.512;2023-04-22T11:22:06;100187.28;;;30.86;58.86
36798;BME280;22748;8.426;99.512;2023-04-22T11:24:54;100189.47;;;30.78;59.12
36798;BME280;22748;8.426;99.512;2023-04-22T11:27:29;100178.81;;;30.83;59.06
36798;BME280;22748;8.426;99.512;2023-04-22T11:30:02;100193.09;;;30.83;59.04
36798;BME280;22748;8.426;99.512;2023-04-22T11:32:35;100185.97;;;30.77;59.03
36798;BME280;22748;8.426;99.512;2023-04-22T11:35:16;100193.09;;;30.60;59.59
36798;BME280;22748;8.426;99.512;2023-04-22T11:37:48;100196.81;;;30.59;59.69
36798;BME280;22748;8.426;99.512;2023-04-22T11:40:19;100193.72;;;30.43;59.75
36798;BME280;22748;8.426;99.512;2023-04-22T11:42:58;100199.00;;;30.38;60.16
36798;BME280;22748;8.426;99.512;2023-04-22T11:45:35;100206.22;;;30.38;60.43
36798;BME280;22748;8.426;99.512;2023-04-22T11:48:11;100213.81;;;30.29;60.42
36798;BME280;22748;8.426;99.512;2023-04-22T11:51:08;100214.91;;;30.40;60.53
36798;BME280;22748;8.426;99.512;2023-04-22T11:53:49;100217.50;;;30.46;60.07
36798;BME280;22748;8.426;99.512;2023-04-22T11:56:21;100218.84;;;30.55;59.87
36798;BME280;22748;8.426;99.512;2023-04-22T11:58:51;100227.75;;;30.68;59.90
36798;BME280;22748;8.426;99.512;2023-04-22T12:01:29;100229.44;;;30.81;59.65
36798;BME280;22748;8.426;99.512;2023-04-22T12:04:01;100243.78;;;30.93;59.18
36798;BME280;22748;8.426;99.512;2023-04-22T12:06:39;100251.56;;;31.01;59.31
36798;BME280;22748;8.426;99.512;2023-04-22T12:09:09;100251.66;;;31.06;58.76
36798;BME280;22748;8.426;99.512;2023-04-22T12:11:40;100257.44;;;31.10;58.75
36798;BME280;22748;8.426;99.512;2023-04-22T12:14:11;100256.59;;;31.09;58.69
36798;BME280;22748;8.426;99.512;2023-04-22T12:16:48;100249.94;;;31.12;58.75
36798;BME280;22748;8.426;99.512;2023-04-22T12:19:25;100257.31;;;31.16;58.79
36798;BME280;22748;8.426;99.512;2023-04-22T12:22:03;100262.13;;;31.14;58.87
36798;BME280;22748;8.426;99.512;2023-04-22T12:24:34;100260.81;;;31.17;58.43
36798;BME280;22748;8.426;99.512;2023-04-22T12:27:05;100257.06;;;31.18;58.82
36798;BME280;22748;8.426;99.512;2023-04-22T12:29:50;100256.47;;;31.16;58.70
36798;BME280;22748;8.426;99.512;2023-04-22T12:32:27;100259.75;;;31.18;58.52
36798;BME280;22748;8.426;99.512;2023-04-22T12:35:02;100268.91;;;31.17;59.04
36798;BME280;22748;8.426;99.512;2023-04-22T12:37:41;100284.03;;;31.18;58.58
36798;BME280;22748;8.426;99.512;2023-04-22T12:40:11;100295.88;;;31.17;58.72
36798;BME280;22748;8.426;99.512;2023-04-22T12:42:58;100300.91;;;31.13;59.16
36798;BME280;22748;8.426;99.512;2023-04-22T12:45:40;100314.78;;;31.17;58.69
36798;BME280;22748;8.426;99.512;2023-04-22T12:48:17;100317.25;;;31.19;58.83
36798;BME280;22748;8.426;99.512;2023-04-22T12:50:48;100320.38;;;31.15;58.67
36798;BME280;22748;8.426;99.512;2023-04-22T12:53:32;100332.47;;;31.13;58.95
36798;BME280;22748;8.426;99.512;2023-04-22T12:56:03;100338.25;;;31.16;58.83
36798;BME280;22748;8.426;99.512;2023-04-22T12:58:39;100340.56;;;31.13;58.94
36798;BME280;22748;8.426;99.512;2023-04-22T13:01:15;100332.94;;;31.10;58.95
36798;BME280;22748;8.426;99.512;2023-04-22T13:03:46;100344.19;;;31.07;59.03
36798;BME280;22748;8.426;99.512;2023-04-22T13:06:20;100335.06;;;31.08;59.00
36798;BME280;22748;8.426;99.512;2023-04-22T13:08:53;100337.16;;;31.06;59.21
36798;BME280;22748;8.426;99.512;2023-04-22T13:11:24;100350.66;;;31.06;58.92
36798;BME280;22748;8.426;99.512;2023-04-22T13:13:59;100355.56;;;31.09;59.04
36798;BME280;22748;8.426;99.512;2023-04-22T13:16:30;100354.53;;;31.10;59.05
36798;BME280;22748;8.426;99.512;2023-04-22T13:19:05;100364.84;;;31.13;58.83
36798;BME280;22748;8.426;99.512;2023-04-22T13:21:37;100366.47;;;31.14;58.86
36798;BME280;22748;8.426;99.512;2023-04-22T13:24:14;100368.13;;;31.15;58.97
36798;BME280;22748;8.426;99.512;2023-04-22T13:26:44;100365.22;;;31.16;58.93
36798;BME280;22748;8.426;99.512;2023-04-22T13:29:15;100363.56;;;31.15;58.98
36798;BME280;22748;8.426;99.512;2023-04-22T13:31:46;100365.44;;;31.15;58.95
36798;BME280;22748;8.426;99.512;2023-04-22T13:34:19;100357.34;;;31.15;59.14
36798;BME280;22748;8.426;99.512;2023-04-22T13:36:50;100363.78;;;31.14;58.87
36798;BME280;22748;8.426;99.512;2023-04-22T13:39:22;100370.25;;;31.13;58.89